Time;durP1;ratioP1;P1;durP2;ratioP2;P2;SDS_P1;SDS_P2;PMS_P1;PMS_P2;Temp;Humidity;BMP_temperature;BMP_pressure;BME280_temperature;BME280_humidity;BME280_pressure;Samples;Min_cycle;Max_cycle;Signal;HPM_P1;HPM_P2
2022/10/21 00:00:33;;;;;;;7.00;6.30;;;11.60;99.90;;;;;;5052493;28;20271;-81
2022/10/21 00:03:00;;;;;;;8.55;6.40;;;11.60;99.90;;;;;;5042951;28;20224;-81
2022/10/21 00:05:31;;;;;;;11.57;7.43;;;11.60;99.90;;;;;;5052818;28;20225;-78
2022/10/21 00:07:58;;;;;;;11.55;7.15;;;11.60;99.90;;;;;;5051547;28;20299;-77
2022/10/21 00:10:24;;;;;;;6.72;6.07;;;11.50;99.90;;;;;;5052191;28;20228;-81
2022/10/21 00:12:51;;;;;;;6.60;5.95;;;11.50;99.90;;;;;;5051882;28;20738;-81
2022/10/21 00:15:19;;;;;;;9.65;6.03;;;11.60;99.90;;;;;;5052430;28;20650;-80
2022/10/21 00:17:47;;;;;;;8.10;7.20;;;11.60;99.90;;;;;;5051934;28;20228;-81
2022/10/21 00:20:14;;;;;;;9.80;7.72;;;11.60;99.90;;;;;;5052328;28;20231;-77
2022/10/21 00:22:41;;;;;;;8.02;7.13;;;11.60;99.90;;;;;;5051696;28;20312;-78
2022/10/21 00:25:11;;;;;;;7.35;6.63;;;11.60;99.90;;;;;;5052365;28;20232;-78
2022/10/21 00:27:39;;;;;;;7.15;6.45;;;11.60;99.90;;;;;;5052321;28;20551;-77
2022/10/21 00:30:07;;;;;;;7.72;6.93;;;11.60;99.90;;;;;;5051566;28;20235;-78
2022/10/21 00:32:34;;;;;;;6.93;5.70;;;11.60;99.90;;;;;;5052109;28;20308;-78
2022/10/21 00:35:03;;;;;;;6.75;6.20;;;11.60;99.90;;;;;;5051719;28;20290;-78
2022/10/21 00:37:31;;;;;;;10.52;6.65;;;11.70;99.90;;;;;;5046135;28;20241;-78
2022/10/21 00:39:58;;;;;;;9.65;7.38;;;11.70;99.90;;;;;;5051159;28;20606;-78
2022/10/21 00:42:31;;;;;;;9.07;6.45;;;11.70;99.90;;;;;;5054167;22;20229;-78
2022/10/21 00:45:18;;;;;;;10.60;6.85;;;11.70;99.90;;;;;;5047904;28;20286;-81
2022/10/21 00:47:49;;;;;;;6.55;5.95;;;11.70;99.90;;;;;;5044956;28;20671;-78
2022/10/21 00:50:27;;;;;;;7.00;6.03;;;11.70;99.90;;;;;;5048943;28;20287;-78
2022/10/21 00:52:55;;;;;;;8.15;6.95;;;11.70;99.90;;;;;;5030783;28;20687;-78
2022/10/21 00:55:23;;;;;;;7.93;6.68;;;11.80;99.90;;;;;;5035237;28;20256;-76
2022/10/21 00:57:51;;;;;;;7.00;6.30;;;11.80;99.90;;;;;;5035623;28;20225;-77
2022/10/21 01:00:18;;;;;;;9.00;8.00;;;11.80;99.90;;;;;;5023277;28;20688;-78
2022/10/21 01:02:45;;;;;;;8.63;7.07;;;11.90;99.90;;;;;;5023112;28;20655;-77
2022/10/21 01:05:13;;;;;;;8.25;6.53;;;11.90;99.90;;;;;;5034747;28;20229;-81
2022/10/21 01:07:48;;;;;;;7.28;5.22;;;11.90;99.90;;;;;;5035576;28;20291;-81
2022/10/21 01:10:21;;;;;;;7.55;6.78;;;11.90;99.90;;;;;;5000910;28;20228;-81
2022/10/21 01:13:04;;;;;;;7.40;6.65;;;11.90;99.90;;;;;;5036478;28;20225;-77
2022/10/21 01:15:36;;;;;;;7.70;6.95;;;11.90;99.90;;;;;;5038550;28;20240;-78
2022/10/21 01:18:12;;;;;;;12.48;7.00;;;11.80;99.90;;;;;;5047175;28;20237;-82
2022/10/21 01:21:11;;;;;;;7.90;6.30;;;11.80;99.90;;;;;;5049509;28;20229;-78
2022/10/21 01:24:04;;;;;;;9.75;7.53;;;11.80;99.90;;;;;;5017086;28;20231;-78
2022/10/21 01:27:01;;;;;;;7.03;6.35;;;11.80;99.90;;;;;;5047741;28;20675;-81
2022/10/21 01:30:03;;;;;;;7.57;6.55;;;11.80;99.90;;;;;;5034490;28;20221;-78
2022/10/21 01:32:51;;;;;;;9.10;7.00;;;11.80;99.90;;;;;;5012757;28;20282;-79
2022/10/21 01:35:22;;;;;;;8.85;7.10;;;11.70;99.90;;;;;;5034879;28;20225;-77
2022/10/21 01:38:01;;;;;;;7.57;6.13;;;11.70;99.90;;;;;;5031234;28;20275;-81
2022/10/21 01:40:35;;;;;;;7.45;6.70;;;11.80;99.90;;;;;;5010629;28;20536;-78
2022/10/21 01:43:10;;;;;;;9.18;6.65;;;11.80;99.90;;;;;;5034592;28;20331;-79
2022/10/21 01:45:42;;;;;;;8.32;6.95;;;11.80;99.90;;;;;;5034559;28;20570;-82
2022/10/21 01:48:13;;;;;;;8.75;7.88;;;11.80;99.90;;;;;;5034932;28;20268;-78
2022/10/21 01:50:46;;;;;;;10.52;7.03;;;11.80;99.90;;;;;;5034081;28;20232;-78
2022/10/21 01:53:16;;;;;;;10.23;8.00;;;11.80;99.90;;;;;;5031104;28;20229;-78
2022/10/21 01:55:45;;;;;;;8.25;7.32;;;11.80;99.90;;;;;;5026854;28;20221;-82
2022/10/21 01:58:18;;;;;;;7.78;6.97;;;11.90;99.90;;;;;;5032882;28;20305;-82
2022/10/21 02:00:46;;;;;;;8.50;7.45;;;11.90;99.90;;;;;;5014118;28;20542;-82
2022/10/21 02:03:23;;;;;;;10.90;8.00;;;11.90;99.90;;;;;;5034088;28;20930;-80
2022/10/21 02:05:50;;;;;;;7.25;6.55;;;11.90;99.90;;;;;;5034127;28;20228;-80
2022/10/21 02:08:17;;;;;;;9.13;7.78;;;11.90;99.90;;;;;;5031994;28;20225;-81
2022/10/21 02:10:47;;;;;;;7.80;6.50;;;11.90;99.90;;;;;;5023014;28;20234;-78
2022/10/21 02:13:18;;;;;;;7.53;6.88;;;11.90;99.90;;;;;;5033558;28;20698;-80
2022/10/21 02:15:47;;;;;;;8.45;7.65;;;11.90;99.90;;;;;;5033356;28;20308;-80
2022/10/21 02:18:22;;;;;;;10.93;7.45;;;11.90;99.90;;;;;;5034016;28;20225;-80
2022/10/21 02:20:54;;;;;;;7.97;7.25;;;11.90;99.90;;;;;;5033493;28;20223;-77
2022/10/21 02:23:28;;;;;;;10.50;8.15;;;11.90;99.90;;;;;;5034183;28;20225;-80
2022/10/21 02:25:55;;;;;;;11.27;7.20;;;11.90;99.90;;;;;;5033444;28;20221;-80
2022/10/21 02:28:22;;;;;;;8.63;7.88;;;11.80;99.90;;;;;;5033942;28;20283;-80
2022/10/21 02:30:59;;;;;;;8.27;6.90;;;11.80;99.90;;;;;;5033584;28;20233;-77
2022/10/21 02:33:44;;;;;;;7.07;6.45;;;11.80;99.90;;;;;;5034124;28;20253;-78
2022/10/21 02:36:16;;;;;;;8.20;7.40;;;11.80;99.90;;;;;;5034069;28;20221;-81
2022/10/21 02:38:47;;;;;;;7.55;6.78;;;11.90;99.90;;;;;;5033950;28;20260;-77
2022/10/21 02:41:19;;;;;;;10.65;8.30;;;11.90;99.90;;;;;;5033571;28;20224;-81
2022/10/21 02:43:52;;;;;;;9.20;8.40;;;12.00;99.90;;;;;;5032911;28;20652;-78
2022/10/21 02:46:19;;;;;;;8.45;7.65;;;12.00;99.90;;;;;;5033973;28;20312;-77
2022/10/21 02:48:48;;;;;;;8.95;7.30;;;12.00;99.90;;;;;;5032251;28;20217;-80
2022/10/21 02:51:16;;;;;;;11.23;7.10;;;12.00;99.90;;;;;;5033259;28;20221;-81
2022/10/21 02:53:43;;;;;;;8.25;6.65;;;12.10;99.90;;;;;;5027094;28;20260;-80
2022/10/21 02:56:13;;;;;;;8.93;8.02;;;12.10;99.90;;;;;;5025882;28;20217;-81
2022/10/21 02:58:40;;;;;;;12.05;7.55;;;12.20;99.90;;;;;;5030874;28;20287;-81
2022/10/21 03:01:07;;;;;;;10.32;7.18;;;12.20;99.90;;;;;;5032601;28;20278;-78
2022/10/21 03:03:35;;;;;;;8.65;7.78;;;12.20;99.90;;;;;;5032553;28;20253;-81
2022/10/21 03:06:04;;;;;;;8.60;7.80;;;12.20;99.90;;;;;;5033644;28;20667;-78
2022/10/21 03:08:31;;;;;;;10.15;8.05;;;12.20;99.90;;;;;;5033751;28;20237;-78
2022/10/21 03:10:58;;;;;;;12.70;7.80;;;12.20;99.90;;;;;;5034739;28;20289;-80
2022/10/21 03:13:25;;;;;;;12.10;8.52;;;12.20;99.90;;;;;;5034031;28;20606;-78
2022/10/21 03:15:52;;;;;;;9.40;8.40;;;12.20;99.90;;;;;;5034290;28;20255;-78
2022/10/21 03:18:20;;;;;;;7.40;6.75;;;12.30;99.90;;;;;;5034172;28;20229;-81
2022/10/21 03:20:49;;;;;;;8.77;8.00;;;12.30;99.90;;;;;;5033510;28;20312;-81
2022/10/21 03:23:18;;;;;;;9.13;8.23;;;12.20;99.90;;;;;;5033944;28;20232;-81
2022/10/21 03:25:45;;;;;;;12.10;7.90;;;12.30;99.90;;;;;;5033198;28;20295;-81
2022/10/21 03:28:12;;;;;;;8.77;6.97;;;12.30;99.90;;;;;;5033985;28;20225;-81
2022/10/21 03:30:39;;;;;;;10.35;8.07;;;12.30;99.90;;;;;;5033601;28;20359;-81
2022/10/21 03:33:06;;;;;;;9.10;7.90;;;12.20;99.90;;;;;;5033302;28;20304;-81
2022/10/21 03:35:32;;;;;;;7.47;6.88;;;12.30;99.90;;;;;;5032964;28;20225;-81
2022/10/21 03:37:59;;;;;;;8.93;7.50;;;12.30;99.90;;;;;;5033957;28;20245;-81
2022/10/21 03:40:29;;;;;;;8.75;7.32;;;12.40;99.90;;;;;;5033527;28;20295;-80
2022/10/21 03:42:56;;;;;;;7.45;6.75;;;12.40;99.90;;;;;;5033344;28;20726;-77
2022/10/21 03:45:23;;;;;;;8.60;6.85;;;12.40;99.90;;;;;;5033404;28;20237;-81
2022/10/21 03:47:50;;;;;;;8.73;7.53;;;12.40;99.90;;;;;;5032562;28;20300;-80
2022/10/21 03:50:18;;;;;;;7.32;6.57;;;12.40;99.90;;;;;;5032897;28;20309;-80
2022/10/21 03:52:45;;;;;;;8.48;7.68;;;12.50;99.90;;;;;;5032604;28;20232;-82
2022/10/21 03:55:13;;;;;;;9.27;8.23;;;12.50;99.90;;;;;;5032345;28;20304;-82
2022/10/21 03:57:41;;;;;;;10.25;8.80;;;12.50;99.90;;;;;;5032408;28;20257;-81
2022/10/21 04:00:09;;;;;;;9.32;8.32;;;12.50;99.90;;;;;;5032979;28;20704;-76
2022/10/21 04:02:36;;;;;;;9.63;8.68;;;12.50;99.90;;;;;;5021138;28;20320;-81
2022/10/21 04:05:03;;;;;;;9.13;8.23;;;12.50;99.90;;;;;;5032535;28;20235;-81
2022/10/21 04:07:35;;;;;;;10.50;8.40;;;12.40;99.90;;;;;;5032662;28;20255;-80
2022/10/21 04:10:02;;;;;;;12.25;9.77;;;12.40;99.90;;;;;;5031796;28;20635;-80
2022/10/21 04:12:29;;;;;;;8.38;7.45;;;12.40;99.90;;;;;;5032541;28;20745;-81
2022/10/21 04:14:58;;;;;;;8.45;7.65;;;12.40;99.90;;;;;;5032254;28;20304;-77
2022/10/21 04:17:25;;;;;;;10.90;8.27;;;12.40;99.90;;;;;;5026005;28;20631;-80
2022/10/21 04:19:52;;;;;;;10.00;8.40;;;12.40;99.90;;;;;;5036411;28;20622;-80
2022/10/21 04:22:19;;;;;;;9.60;8.70;;;12.30;99.90;;;;;;5036442;28;20299;-78
2022/10/21 04:24:46;;;;;;;11.13;9.48;;;12.30;99.90;;;;;;5035097;28;20231;-77
2022/10/21 04:27:13;;;;;;;9.05;8.15;;;12.20;99.90;;;;;;5036664;28;20232;-77
2022/10/21 04:29:40;;;;;;;10.43;9.02;;;12.30;99.90;;;;;;5033766;28;20315;-78
2022/10/21 04:32:11;;;;;;;9.73;8.73;;;12.20;99.90;;;;;;5035165;28;20316;-81
2022/10/21 04:34:38;;;;;;;9.57;8.60;;;12.10;99.90;;;;;;5036588;28;20225;-81
2022/10/21 04:37:05;;;;;;;10.27;9.10;;;12.20;99.90;;;;;;5035537;28;20249;-81
2022/10/21 04:39:32;;;;;;;11.25;8.70;;;12.10;99.90;;;;;;5036483;28;20225;-81
2022/10/21 04:41:59;;;;;;;8.68;7.85;;;12.10;99.90;;;;;;5035744;28;20678;-81
2022/10/21 04:44:33;;;;;;;10.20;9.18;;;12.20;99.90;;;;;;5036694;28;20222;-78
2022/10/21 04:47:00;;;;;;;9.30;7.55;;;12.20;99.90;;;;;;5035512;28;20226;-81
2022/10/21 04:49:28;;;;;;;10.65;8.90;;;12.20;99.90;;;;;;5036472;28;20339;-81
2022/10/21 04:51:55;;;;;;;9.88;8.90;;;12.20;99.90;;;;;;5035166;28;20233;-82
2022/10/21 04:54:22;;;;;;;11.35;9.23;;;12.20;99.90;;;;;;5036156;28;20225;-81
2022/10/21 04:56:49;;;;;;;9.73;8.77;;;12.20;99.90;;;;;;5035484;28;20551;-81
2022/10/21 04:59:16;;;;;;;9.80;8.45;;;12.20;99.90;;;;;;5035840;28;20268;-78
2022/10/21 05:01:43;;;;;;;10.85;9.75;;;12.20;99.90;;;;;;5035715;28;20237;-81
2022/10/21 05:04:10;;;;;;;9.80;8.80;;;12.20;99.90;;;;;;5035205;28;20695;-81
2022/10/21 05:06:38;;;;;;;10.02;9.00;;;12.20;99.90;;;;;;5035980;28;20556;-81
2022/10/21 05:09:05;;;;;;;9.60;8.70;;;12.20;99.90;;;;;;5035271;28;20234;-81
2022/10/21 05:11:32;;;;;;;10.80;9.70;;;12.20;99.90;;;;;;5035298;28;20232;-78
2022/10/21 05:13:59;;;;;;;10.48;8.85;;;12.20;99.90;;;;;;5034870;28;20221;-80
2022/10/21 05:16:26;;;;;;;11.15;10.05;;;12.20;99.90;;;;;;5026578;28;20260;-77
2022/10/21 05:18:53;;;;;;;11.68;9.98;;;12.20;99.90;;;;;;5035016;28;20225;-78
2022/10/21 05:21:22;;;;;;;10.77;9.80;;;12.20;99.90;;;;;;5038658;28;20283;-81
2022/10/21 05:23:51;;;;;;;9.70;8.80;;;12.20;99.90;;;;;;5035797;28;20233;-81
2022/10/21 05:26:18;;;;;;;13.27;11.55;;;12.20;99.90;;;;;;5035278;28;20217;-78
2022/10/21 05:28:48;;;;;;;13.35;12.05;;;12.30;99.90;;;;;;5034135;28;20344;-81
2022/10/21 05:31:18;;;;;;;12.38;10.20;;;12.30;99.90;;;;;;5034001;28;20225;-81
2022/10/21 05:33:45;;;;;;;9.52;8.60;;;12.30;99.90;;;;;;5034273;28;20678;-81
2022/10/21 05:36:12;;;;;;;10.77;9.65;;;12.30;99.90;;;;;;5035188;28;20300;-81
2022/10/21 05:38:40;;;;;;;10.43;9.43;;;12.30;99.90;;;;;;5034427;28;20222;-77
2022/10/21 05:41:09;;;;;;;10.68;9.57;;;12.40;99.90;;;;;;5035093;28;20352;-81
2022/10/21 05:43:37;;;;;;;11.02;9.75;;;12.30;99.90;;;;;;5034113;28;20229;-78
2022/10/21 05:46:05;;;;;;;10.82;9.73;;;12.40;99.90;;;;;;5035029;28;20322;-78
2022/10/21 05:48:32;;;;;;;11.80;10.18;;;12.30;99.90;;;;;;5034888;28;20218;-77
2022/10/21 05:50:59;;;;;;;13.52;10.07;;;12.30;99.90;;;;;;5023073;28;20242;-77
2022/10/21 05:53:26;;;;;;;11.98;9.18;;;12.40;99.90;;;;;;5034548;28;20236;-78
2022/10/21 05:55:57;;;;;;;9.90;8.70;;;12.40;99.90;;;;;;5036285;28;20309;-77
2022/10/21 05:58:26;;;;;;;9.98;8.95;;;12.40;99.90;;;;;;5037138;28;20301;-78
2022/10/21 06:00:54;;;;;;;11.80;9.68;;;12.40;99.90;;;;;;5035370;28;20299;-78
2022/10/21 06:03:22;;;;;;;11.57;9.30;;;12.50;99.90;;;;;;5034662;28;20240;-77
2022/10/21 06:05:49;;;;;;;11.18;9.98;;;12.50;99.90;;;;;;5034325;28;20229;-77
2022/10/21 06:08:16;;;;;;;11.70;10.50;;;12.50;99.90;;;;;;5034431;28;20312;-77
2022/10/21 06:10:44;;;;;;;9.82;8.93;;;12.40;99.90;;;;;;5033892;28;20544;-77
2022/10/21 06:13:10;;;;;;;10.93;9.82;;;12.50;99.90;;;;;;5033862;28;20225;-77
2022/10/21 06:15:39;;;;;;;11.52;9.45;;;12.50;99.90;;;;;;5034761;28;20229;-77
2022/10/21 06:18:06;;;;;;;11.73;9.07;;;12.50;99.90;;;;;;5033781;28;20727;-77
2022/10/21 06:20:33;;;;;;;11.00;9.80;;;12.50;99.90;;;;;;5034128;28;20253;-77
2022/10/21 06:23:02;;;;;;;14.32;9.68;;;12.50;99.90;;;;;;5034320;28;20344;-81
2022/10/21 06:25:29;;;;;;;10.55;9.45;;;12.50;99.90;;;;;;5034220;28;20308;-81
2022/10/21 06:27:56;;;;;;;10.27;9.20;;;12.50;99.90;;;;;;5033673;28;20252;-80
2022/10/21 06:30:23;;;;;;;9.70;8.70;;;12.60;99.90;;;;;;5034141;28;20229;-81
2022/10/21 06:32:51;;;;;;;9.82;8.75;;;12.60;99.90;;;;;;5033476;28;20763;-80
2022/10/21 06:35:18;;;;;;;11.15;10.02;;;12.60;99.90;;;;;;5034029;28;20252;-80
2022/10/21 06:37:45;;;;;;;11.93;10.30;;;12.60;99.90;;;;;;5033794;28;20580;-80
2022/10/21 06:40:12;;;;;;;12.23;10.20;;;12.60;99.90;;;;;;5033289;28;20245;-81
2022/10/21 06:42:39;;;;;;;10.50;9.48;;;12.70;99.90;;;;;;5033637;28;20291;-81
2022/10/21 06:45:07;;;;;;;10.63;9.30;;;12.70;99.90;;;;;;5033473;28;20671;-81
2022/10/21 06:47:34;;;;;;;11.10;8.98;;;12.70;99.90;;;;;;5033961;28;20287;-81
2022/10/21 06:50:03;;;;;;;11.32;9.70;;;12.70;99.90;;;;;;5033501;28;20369;-81
2022/10/21 06:52:30;;;;;;;11.05;9.95;;;12.70;99.90;;;;;;5035682;28;20284;-80
2022/10/21 06:54:57;;;;;;;16.42;10.18;;;12.70;99.90;;;;;;5037538;28;20222;-80
2022/10/21 06:57:50;;;;;;;11.40;10.20;;;12.60;99.90;;;;;;5043759;28;20590;-80
2022/10/21 07:00:18;;;;;;;11.73;10.43;;;12.70;99.90;;;;;;5040305;28;20225;-79
2022/10/21 07:02:45;;;;;;;12.60;10.75;;;12.70;99.90;;;;;;5029235;28;20226;-79
2022/10/21 07:05:13;;;;;;;12.88;10.13;;;12.70;99.90;;;;;;5041052;28;20257;-76
2022/10/21 07:07:40;;;;;;;10.68;9.57;;;12.80;99.90;;;;;;5035647;28;20253;-77
2022/10/21 07:10:07;;;;;;;14.50;10.65;;;12.80;99.90;;;;;;5033347;28;20312;-77
2022/10/21 07:13:07;;;;;;;10.60;9.60;;;12.70;99.90;;;;;;5024307;28;20272;-77
2022/10/21 07:15:34;;;;;;;11.15;9.98;;;12.80;99.90;;;;;;5037246;28;20237;-81
2022/10/21 07:18:01;;;;;;;11.70;10.50;;;12.80;99.90;;;;;;5028111;28;20249;-81
2022/10/21 07:20:29;;;;;;;12.48;9.50;;;12.80;99.90;;;;;;5025966;28;20225;-81
2022/10/21 07:25:42;;;;;;;11.52;9.15;;;12.90;99.90;;;;;;5033327;28;20213;-81
2022/10/21 07:28:09;;;;;;;16.05;10.38;;;13.00;99.90;;;;;;5033307;28;20225;-81
2022/10/21 07:30:39;;;;;;;11.88;10.02;;;13.00;99.90;;;;;;5032907;28;20225;-79
2022/10/21 07:33:06;;;;;;;11.80;9.93;;;13.10;99.90;;;;;;5032367;28;20221;-78
2022/10/21 07:35:35;;;;;;;14.52;11.15;;;13.10;99.90;;;;;;5032535;28;20652;-77
2022/10/21 07:38:02;;;;;;;10.82;9.82;;;13.10;99.90;;;;;;5033663;28;20230;-77
2022/10/21 07:40:29;;;;;;;13.25;10.65;;;13.10;99.90;;;;;;5034000;28;20667;-76
2022/10/21 07:43:08;;;;;;;10.55;9.45;;;13.20;99.90;;;;;;5034000;28;20221;-80
2022/10/21 07:45:42;;;;;;;10.65;9.55;;;13.20;99.90;;;;;;5034170;28;20225;-81
2022/10/21 07:48:09;;;;;;;11.15;9.95;;;13.20;99.90;;;;;;5033585;28;20221;-81
2022/10/21 07:50:38;;;;;;;11.82;9.18;;;13.20;99.90;;;;;;5033358;28;20240;-81
2022/10/21 07:53:05;;;;;;;14.15;10.77;;;13.30;99.90;;;;;;5035481;28;20232;-80
2022/10/21 07:55:32;;;;;;;10.52;9.30;;;13.30;99.90;;;;;;5037348;28;20283;-80
2022/10/21 07:57:59;;;;;;;11.60;10.30;;;13.30;99.90;;;;;;5036931;28;20320;-80
2022/10/21 08:00:26;;;;;;;8.63;7.82;;;13.40;99.90;;;;;;5038072;28;20608;-80
2022/10/21 08:02:55;;;;;;;10.70;9.70;;;13.40;99.90;;;;;;5035527;28;20703;-80
2022/10/21 08:05:22;;;;;;;9.77;8.88;;;13.50;99.90;;;;;;5037950;28;20320;-77
2022/10/21 08:07:54;;;;;;;12.38;10.35;;;13.60;99.90;;;;;;5037244;28;20275;-78
2022/10/21 08:10:21;;;;;;;9.77;8.80;;;13.60;99.90;;;;;;5044265;28;20228;-81
2022/10/21 08:12:50;;;;;;;10.82;9.63;;;13.60;99.90;;;;;;5042424;28;20669;-79
2022/10/21 08:15:17;;;;;;;9.88;8.88;;;13.70;99.90;;;;;;5040440;28;20232;-78
2022/10/21 08:17:44;;;;;;;13.95;9.60;;;13.80;99.90;;;;;;5041026;28;20259;-81
2022/10/21 08:20:11;;;;;;;12.07;10.05;;;13.80;99.90;;;;;;5037418;28;20256;-78
2022/10/21 08:22:39;;;;;;;10.32;9.32;;;13.80;99.90;;;;;;5036918;28;20295;-79
2022/10/21 08:25:10;;;;;;;10.32;9.15;;;13.90;99.90;;;;;;5036476;28;20252;-78
2022/10/21 08:27:37;;;;;;;10.93;9.90;;;13.90;99.90;;;;;;5036415;28;20287;-78
2022/10/21 08:30:05;;;;;;;13.00;10.70;;;13.90;99.90;;;;;;5036604;28;20468;-82
2022/10/21 08:32:32;;;;;;;10.85;9.07;;;13.90;99.90;;;;;;5036231;28;20245;-78
2022/10/21 08:34:59;;;;;;;11.18;10.00;;;13.90;99.90;;;;;;5035764;28;20664;-81
2022/10/21 08:37:29;;;;;;;10.93;9.82;;;13.90;99.90;;;;;;5036712;28;20245;-81
2022/10/21 08:39:56;;;;;;;11.48;10.15;;;14.00;99.90;;;;;;5034907;28;20225;-80
2022/10/21 08:42:26;;;;;;;11.25;10.15;;;14.00;99.90;;;;;;5035885;28;20624;-78
2022/10/21 08:44:58;;;;;;;10.53;9.50;;;14.00;99.90;;;;;;5035357;28;20635;-80
2022/10/21 08:47:33;;;;;;;12.87;10.10;;;14.10;99.90;;;;;;5030613;28;20996;-80
2022/10/21 08:50:03;;;;;;;10.43;9.43;;;14.20;99.90;;;;;;5045645;28;20558;-80
2022/10/21 08:52:39;;;;;;;9.07;8.20;;;14.20;99.90;;;;;;5035600;28;20737;-77
2022/10/21 08:55:12;;;;;;;12.73;10.52;;;14.30;99.90;;;;;;5035450;28;20229;-81
2022/10/21 08:57:41;;;;;;;9.68;8.68;;;14.30;99.90;;;;;;5036625;28;20322;-77
2022/10/21 09:00:16;;;;;;;12.63;10.00;;;14.40;99.90;;;;;;5034791;28;20279;-78
2022/10/21 09:03:04;;;;;;;11.43;9.30;;;14.50;99.90;;;;;;5034963;28;20530;-81
2022/10/21 09:06:14;;;;;;;11.85;10.65;;;14.50;99.90;;;;;;5025211;28;20608;-81
2022/10/21 09:08:51;;;;;;;10.83;9.83;;;14.60;99.90;;;;;;5028646;28;20252;-80
2022/10/21 09:11:28;;;;;;;12.80;11.50;;;14.70;99.90;;;;;;5035118;28;20586;-80
2022/10/21 09:14:34;;;;;;;12.83;10.97;;;14.70;99.90;;;;;;5033782;28;21031;-81
2022/10/21 09:17:13;;;;;;;14.70;10.10;;;14.70;99.90;;;;;;5033198;28;20499;-77
2022/10/21 09:19:49;;;;;;;12.40;11.10;;;14.70;99.90;;;;;;5035369;28;20978;-79
2022/10/21 09:22:32;;;;;;;15.80;10.27;;;14.80;99.90;;;;;;5034582;28;20479;-77
2022/10/21 09:25:03;;;;;;;11.82;10.38;;;14.80;99.90;;;;;;5034154;28;20471;-80
2022/10/21 09:27:36;;;;;;;13.00;11.70;;;14.80;99.90;;;;;;5034562;28;20221;-81
2022/10/21 09:30:09;;;;;;;13.17;11.77;;;14.80;99.90;;;;;;5035081;28;20849;-82
2022/10/21 09:32:40;;;;;;;15.03;8.83;;;14.90;99.90;;;;;;5034717;28;20506;-78
2022/10/21 09:35:15;;;;;;;14.55;12.35;;;14.90;99.90;;;;;;5034109;28;20559;-78
2022/10/21 09:37:49;;;;;;;11.67;10.50;;;14.90;99.90;;;;;;5034393;28;20302;-81
2022/10/21 09:40:18;;;;;;;10.57;9.47;;;15.00;99.90;;;;;;5034091;28;22664;-81
2022/10/21 09:42:49;;;;;;;12.13;11.00;;;15.00;99.90;;;;;;5034525;28;20777;-77
2022/10/21 09:45:23;;;;;;;9.87;8.97;;;15.00;99.90;;;;;;5033927;28;20848;-80
2022/10/21 09:47:56;;;;;;;10.80;9.87;;;15.10;99.90;;;;;;5034447;28;20866;-80
2022/10/21 09:50:23;;;;;;;9.90;8.90;;;15.10;99.90;;;;;;5034624;28;20788;-82
2022/10/21 09:53:01;;;;;;;11.93;10.50;;;15.20;99.90;;;;;;5033925;28;20538;-81
2022/10/21 09:55:30;;;;;;;10.80;9.80;;;15.20;99.90;;;;;;5034097;28;20465;-80
2022/10/21 09:57:59;;;;;;;15.50;11.73;;;15.20;99.90;;;;;;5034621;28;20483;-80
2022/10/21 10:00:48;;;;;;;11.30;9.77;;;15.20;99.90;;;;;;5024369;28;20460;-78
2022/10/21 10:03:31;;;;;;;10.67;9.57;;;15.30;99.90;;;;;;5033443;28;20476;-77
2022/10/21 10:05:58;;;;;;;10.67;9.57;;;15.30;99.90;;;;;;5034154;28;20468;-77
2022/10/21 10:08:32;;;;;;;11.20;9.50;;;15.40;99.90;;;;;;5033223;28;20559;-77
2022/10/21 10:11:03;;;;;;;11.00;9.63;;;15.40;99.90;;;;;;5034008;28;20503;-77
2022/10/21 10:13:33;;;;;;;11.40;10.40;;;15.40;99.90;;;;;;5033542;28;20528;-77
2022/10/21 10:16:25;;;;;;;10.80;9.70;;;15.50;99.90;;;;;;5033326;28;20476;-77
2022/10/21 10:18:54;;;;;;;11.23;10.10;;;15.50;99.90;;;;;;5033974;28;20782;-77
2022/10/21 10:21:22;;;;;;;12.63;10.00;;;15.60;99.90;;;;;;5033604;28;20534;-78
2022/10/21 10:23:52;;;;;;;9.57;8.67;;;15.60;99.90;;;;;;5034122;28;20552;-78
2022/10/21 10:26:26;;;;;;;10.53;9.43;;;15.70;99.90;;;;;;5033586;28;20526;-77
2022/10/21 10:28:56;;;;;;;11.63;10.47;;;15.80;99.90;;;;;;5033757;28;20467;-78
2022/10/21 10:31:30;;;;;;;12.53;11.37;;;15.80;99.90;;;;;;5033324;28;20479;-79
2022/10/21 10:34:00;;;;;;;9.90;8.90;;;15.80;99.90;;;;;;5033867;28;20543;-78
2022/10/21 10:36:36;;;;;;;11.83;10.73;;;15.90;99.90;;;;;;5033446;28;20886;-78
2022/10/21 10:39:06;;;;;;;10.43;9.43;;;15.90;99.90;;;;;;5033294;28;20500;-78
2022/10/21 10:41:37;;;;;;;13.20;11.20;;;16.00;99.90;;;;;;5033231;28;20464;-78
2022/10/21 10:44:11;;;;;;;11.83;10.70;;;16.00;99.90;;;;;;5023523;28;20476;-77
2022/10/21 10:46:39;;;;;;;11.30;10.30;;;16.00;99.90;;;;;;5031934;28;20459;-78
2022/10/21 10:49:21;;;;;;;11.53;10.40;;;16.00;99.90;;;;;;5033486;28;20468;-77
2022/10/21 10:52:03;;;;;;;13.63;11.00;;;16.10;99.90;;;;;;5033875;28;20471;-81
2022/10/21 10:54:30;;;;;;;13.57;12.23;;;16.10;99.90;;;;;;5034886;28;20496;-81
2022/10/21 11:20:07;;;;;;;11.03;10.03;;;16.40;99.90;;;;;;4964403;28;20450;-81
2022/10/21 11:23:22;;;;;;;9.90;9.00;;;16.50;99.90;;;;;;4906358;29;20509;-81
2022/10/21 11:29:58;;;;;;;12.03;9.33;;;16.60;99.90;;;;;;4894245;29;21056;-83
2022/10/21 11:54:20;;;;;;;9.50;8.67;;;17.00;99.90;;;;;;4805064;29;20477;-82
2022/10/21 11:56:53;;;;;;;11.30;10.27;;;17.00;99.90;;;;;;4898444;28;20470;-82
2022/10/21 11:59:37;;;;;;;12.43;11.17;;;17.00;99.90;;;;;;4998499;28;20468;-82
2022/10/21 12:02:20;;;;;;;11.10;9.83;;;17.00;99.90;;;;;;4996486;28;20456;-82
2022/10/21 12:04:59;;;;;;;14.60;11.33;;;17.00;99.90;;;;;;4996712;28;20502;-82
2022/10/21 12:10:48;;;;;;;11.20;10.10;;;17.00;99.90;;;;;;5006929;28;21398;-83
2022/10/21 12:13:20;;;;;;;13.27;11.97;;;17.10;99.90;;;;;;4997775;28;20478;-79
2022/10/21 12:15:51;;;;;;;13.73;11.67;;;17.10;99.90;;;;;;5001246;28;20473;-79
2022/10/21 12:18:22;;;;;;;13.20;12.00;;;17.10;99.90;;;;;;4993401;28;20471;-79
2022/10/21 12:20:52;;;;;;;11.80;10.47;;;17.00;99.90;;;;;;5012524;28;20486;-79
2022/10/21 12:23:28;;;;;;;11.00;9.90;;;17.10;99.90;;;;;;5012867;28;20476;-82
2022/10/21 12:26:27;;;;;;;16.20;11.53;;;17.10;99.90;;;;;;5002371;28;20477;-82
2022/10/21 12:28:59;;;;;;;12.80;11.00;;;17.10;99.90;;;;;;4991642;28;20524;-78
2022/10/21 12:31:39;;;;;;;10.40;9.50;;;17.10;99.90;;;;;;4993738;28;20507;-83
2022/10/21 12:34:09;;;;;;;10.83;9.80;;;17.20;99.90;;;;;;5001016;28;20454;-82
2022/10/21 12:36:54;;;;;;;10.50;9.40;;;17.30;99.90;;;;;;5001092;28;20965;-82
2022/10/21 12:39:49;;;;;;;10.27;9.13;;;17.30;99.90;;;;;;5008744;28;20468;-82
2022/10/21 12:42:18;;;;;;;10.97;9.10;;;17.30;99.90;;;;;;5016186;28;20474;-83
2022/10/21 12:44:47;;;;;;;13.07;10.23;;;17.40;99.90;;;;;;5017153;28;20523;-83
2022/10/21 12:47:30;;;;;;;14.60;11.30;;;17.30;99.90;;;;;;5005919;28;20601;-82
2022/10/21 12:50:05;;;;;;;9.60;8.63;;;17.40;99.90;;;;;;5015535;28;20548;-79
2022/10/21 12:52:37;;;;;;;8.53;7.83;;;17.40;99.90;;;;;;5014802;28;20464;-83
2022/10/21 12:55:07;;;;;;;9.30;7.33;;;17.40;99.90;;;;;;5015878;28;20478;-77
2022/10/21 12:57:37;;;;;;;11.77;10.57;;;17.50;99.90;;;;;;5004094;28;20474;-76
2022/10/21 13:00:53;;;;;;;12.50;10.17;;;17.50;99.90;;;;;;5013404;28;20478;-78
2022/10/21 13:03:23;;;;;;;9.60;8.80;;;17.50;99.90;;;;;;5004429;28;20939;-81
2022/10/21 13:06:06;;;;;;;9.97;8.57;;;17.50;99.90;;;;;;4997723;28;20482;-81
2022/10/21 13:08:51;;;;;;;12.60;11.37;;;17.50;99.90;;;;;;4996112;28;20553;-81
2022/10/21 13:11:24;;;;;;;11.30;10.27;;;17.40;99.90;;;;;;4994359;28;20572;-78
2022/10/21 13:14:31;;;;;;;13.33;10.40;;;17.40;99.90;;;;;;5004309;28;20550;-79
2022/10/21 13:17:31;;;;;;;10.40;9.40;;;17.50;99.90;;;;;;5013196;28;20478;-77
2022/10/21 13:20:37;;;;;;;12.47;10.53;;;17.40;99.90;;;;;;5007572;28;20522;-82
2022/10/21 13:23:47;;;;;;;12.27;9.53;;;17.40;99.90;;;;;;4990048;28;20477;-82
2022/10/21 13:26:23;;;;;;;8.60;7.80;;;17.40;99.90;;;;;;4980302;28;20468;-80
2022/10/21 13:29:40;;;;;;;12.83;9.93;;;17.40;99.90;;;;;;5005121;28;20467;-79
2022/10/21 13:32:32;;;;;;;13.60;11.60;;;17.40;99.90;;;;;;5009529;28;20463;-79
2022/10/21 13:35:25;;;;;;;19.07;10.20;;;17.40;99.90;;;;;;5002931;28;20472;-78
2022/10/21 13:37:56;;;;;;;9.90;9.00;;;17.30;99.90;;;;;;4975567;28;20472;-77
2022/10/21 13:40:29;;;;;;;9.90;8.90;;;17.30;99.90;;;;;;4995576;28;20470;-77
2022/10/21 13:43:31;;;;;;;10.50;8.40;;;17.40;99.90;;;;;;4984571;28;20480;-78
2022/10/21 13:46:05;;;;;;;11.10;9.23;;;17.40;99.90;;;;;;4969260;28;20467;-78
2022/10/21 13:48:38;;;;;;;7.10;6.50;;;17.30;99.90;;;;;;5002448;28;20530;-78
2022/10/21 13:51:14;;;;;;;11.40;8.73;;;17.30;99.90;;;;;;4995328;28;20562;-78
2022/10/21 13:53:44;;;;;;;9.03;8.30;;;17.30;99.90;;;;;;4994695;28;20530;-77
2022/10/21 13:56:19;;;;;;;9.27;8.27;;;17.30;99.90;;;;;;4995043;28;20479;-77
2022/10/21 13:58:47;;;;;;;8.67;7.47;;;17.30;99.90;;;;;;4993394;28;20494;-83